Eastmanville, Michigan
Current Conditions -  °F | °C
As of 1:55 AM on Monday 24 Nov 2014 (Local Time) from KMKG Reporting Station
Light Rain Light Rain  
Wind Chill: 49°   Ceiling: 700
Heat Index: 49°   Visibility: 4mi
Dew Point: 47°   Wind: 0mph
Humidity: 93%   Direction: NA
Pressure: 29.05"   Gusts: NA
Location:  43.0662°N, 85.9564°W
Report Text: KMKG 240655Z AUTO 00000KT 4SM -RA BR OVC007 09/08 A2905 RMK AO2 SLP837 P0007 T00940083
Loading
Personal Weather Stations






























Interactive Weather Map New forecast layout! Learn more

10-Day Weather Forecast

Advertisements
Track Severe Weather on mobile